sensor_id;sensor_type;location;lat;lon;timestamp;P1;durP1;ratioP1;P2;durP2;ratioP2
37241;SDS011;23135;51.078;12.108;2023-02-28T00:01:11;4.97;;;0.90;;
37241;SDS011;23135;51.078;12.108;2023-02-28T00:03:37;1.48;;;0.43;;
37241;SDS011;23135;51.078;12.108;2023-02-28T00:06:04;7.45;;;1.10;;
37241;SDS011;23135;51.078;12.108;2023-02-28T00:08:30;2.05;;;0.57;;
37241;SDS011;23135;51.078;12.108;2023-02-28T00:10:56;5.93;;;2.10;;
37241;SDS011;23135;51.078;12.108;2023-02-28T00:13:25;1.88;;;0.45;;
37241;SDS011;23135;51.078;12.108;2023-02-28T00:15:58;4.38;;;0.47;;
37241;SDS011;23135;51.078;12.108;2023-02-28T00:18:25;1.58;;;0.80;;
37241;SDS011;23135;51.078;12.108;2023-02-28T00:20:51;2.45;;;1.05;;
37241;SDS011;23135;51.078;12.108;2023-02-28T00:23:16;2.58;;;1.00;;
37241;SDS011;23135;51.078;12.108;2023-02-28T00:25:42;6.75;;;0.82;;
37241;SDS011;23135;51.078;12.108;2023-02-28T00:28:07;2.28;;;0.60;;
37241;SDS011;23135;51.078;12.108;2023-02-28T00:30:33;5.97;;;1.30;;
37241;SDS011;23135;51.078;12.108;2023-02-28T00:32:58;3.00;;;0.57;;
37241;SDS011;23135;51.078;12.108;2023-02-28T00:35:24;1.73;;;0.90;;
37241;SDS011;23135;51.078;12.108;2023-02-28T00:37:49;7.85;;;1.10;;
37241;SDS011;23135;51.078;12.108;2023-02-28T00:40:15;3.50;;;0.70;;
37241;SDS011;23135;51.078;12.108;2023-02-28T00:42:41;6.32;;;1.73;;
37241;SDS011;23135;51.078;12.108;2023-02-28T00:45:06;6.18;;;1.13;;
37241;SDS011;23135;51.078;12.108;2023-02-28T00:47:35;2.67;;;0.40;;
37241;SDS011;23135;51.078;12.108;2023-02-28T00:50:01;2.58;;;1.00;;
37241;SDS011;23135;51.078;12.108;2023-02-28T00:52:27;2.78;;;0.65;;
37241;SDS011;23135;51.078;12.108;2023-02-28T00:54:53;5.63;;;0.98;;
37241;SDS011;23135;51.078;12.108;2023-02-28T00:57:18;7.32;;;1.38;;
37241;SDS011;23135;51.078;12.108;2023-02-28T00:59:44;3.75;;;1.77;;
37241;SDS011;23135;51.078;12.108;2023-02-28T01:02:09;2.83;;;0.57;;
37241;SDS011;23135;51.078;12.108;2023-02-28T01:04:35;2.08;;;0.75;;
37241;SDS011;23135;51.078;12.108;2023-02-28T01:07:00;3.47;;;1.15;;
37241;SDS011;23135;51.078;12.108;2023-02-28T01:09:26;6.75;;;0.80;;
37241;SDS011;23135;51.078;12.108;2023-02-28T01:11:51;4.43;;;0.60;;
37241;SDS011;23135;51.078;12.108;2023-02-28T01:14:17;3.13;;;0.60;;
37241;SDS011;23135;51.078;12.108;2023-02-28T01:16:43;4.65;;;0.45;;
37241;SDS011;23135;51.078;12.108;2023-02-28T01:19:09;1.45;;;0.63;;
37241;SDS011;23135;51.078;12.108;2023-02-28T01:21:35;2.35;;;0.68;;
37241;SDS011;23135;51.078;12.108;2023-02-28T01:24:01;3.13;;;0.82;;
37241;SDS011;23135;51.078;12.108;2023-02-28T01:26:27;3.38;;;1.30;;
37241;SDS011;23135;51.078;12.108;2023-02-28T01:28:53;9.10;;;1.17;;
37241;SDS011;23135;51.078;12.108;2023-02-28T01:31:19;1.63;;;0.60;;
37241;SDS011;23135;51.078;12.108;2023-02-28T01:33:45;4.45;;;0.85;;
37241;SDS011;23135;51.078;12.108;2023-02-28T01:36:13;3.65;;;0.32;;
37241;SDS011;23135;51.078;12.108;2023-02-28T01:38:40;4.57;;;0.50;;
37241;SDS011;23135;51.078;12.108;2023-02-28T01:41:06;5.35;;;1.17;;
37241;SDS011;23135;51.078;12.108;2023-02-28T01:43:51;2.28;;;0.73;;
37241;SDS011;23135;51.078;12.108;2023-02-28T01:46:22;6.45;;;0.57;;
37241;SDS011;23135;51.078;12.108;2023-02-28T01:48:50;2.50;;;0.90;;
37241;SDS011;23135;51.078;12.108;2023-02-28T01:53:55;3.45;;;1.02;;
37241;SDS011;23135;51.078;12.108;2023-02-28T01:56:26;5.90;;;0.52;;
37241;SDS011;23135;51.078;12.108;2023-02-28T01:58:55;1.88;;;0.65;;
37241;SDS011;23135;51.078;12.108;2023-02-28T02:01:21;6.38;;;0.85;;
37241;SDS011;23135;51.078;12.108;2023-02-28T02:03:51;3.47;;;0.93;;
37241;SDS011;23135;51.078;12.108;2023-02-28T02:06:24;3.42;;;1.13;;
37241;SDS011;23135;51.078;12.108;2023-02-28T02:08:54;2.35;;;0.40;;
37241;SDS011;23135;51.078;12.108;2023-02-28T02:11:20;3.40;;;0.60;;
37241;SDS011;23135;51.078;12.108;2023-02-28T02:14:01;4.50;;;0.88;;
37241;SDS011;23135;51.078;12.108;2023-02-28T02:16:50;4.88;;;1.08;;
37241;SDS011;23135;51.078;12.108;2023-02-28T02:34:26;2.03;;;0.40;;
37241;SDS011;23135;51.078;12.108;2023-02-28T02:37:17;5.70;;;2.08;;
37241;SDS011;23135;51.078;12.108;2023-02-28T02:40:03;2.47;;;0.75;;
37241;SDS011;23135;51.078;12.108;2023-02-28T02:42:32;3.25;;;0.75;;
37241;SDS011;23135;51.078;12.108;2023-02-28T02:45:00;2.13;;;0.85;;
37241;SDS011;23135;51.078;12.108;2023-02-28T02:47:30;3.95;;;1.58;;
37241;SDS011;23135;51.078;12.108;2023-02-28T02:49:57;1.48;;;0.30;;
37241;SDS011;23135;51.078;12.108;2023-02-28T02:52:30;3.72;;;0.85;;
37241;SDS011;23135;51.078;12.108;2023-02-28T02:55:03;3.40;;;0.98;;
37241;SDS011;23135;51.078;12.108;2023-02-28T02:57:35;3.95;;;1.05;;
37241;SDS011;23135;51.078;12.108;2023-02-28T03:00:05;8.73;;;1.10;;
37241;SDS011;23135;51.078;12.108;2023-02-28T03:02:34;5.65;;;0.73;;
37241;SDS011;23135;51.078;12.108;2023-02-28T03:05:03;2.55;;;0.60;;
37241;SDS011;23135;51.078;12.108;2023-02-28T03:07:33;4.07;;;0.60;;
37241;SDS011;23135;51.078;12.108;2023-02-28T03:09:58;1.42;;;0.30;;
37241;SDS011;23135;51.078;12.108;2023-02-28T03:12:28;3.35;;;0.70;;
37241;SDS011;23135;51.078;12.108;2023-02-28T03:15:16;2.70;;;0.75;;
37241;SDS011;23135;51.078;12.108;2023-02-28T03:20:46;1.38;;;0.75;;
37241;SDS011;23135;51.078;12.108;2023-02-28T03:23:41;3.67;;;0.68;;
37241;SDS011;23135;51.078;12.108;2023-02-28T03:26:13;5.68;;;1.35;;
37241;SDS011;23135;51.078;12.108;2023-02-28T03:28:51;3.42;;;1.38;;
37241;SDS011;23135;51.078;12.108;2023-02-28T03:31:33;1.40;;;0.85;;
37241;SDS011;23135;51.078;12.108;2023-02-28T03:34:05;3.45;;;0.68;;
37241;SDS011;23135;51.078;12.108;2023-02-28T03:36:37;3.13;;;0.70;;
37241;SDS011;23135;51.078;12.108;2023-02-28T03:39:09;2.80;;;0.98;;
37241;SDS011;23135;51.078;12.108;2023-02-28T03:41:45;3.50;;;0.57;;
37241;SDS011;23135;51.078;12.108;2023-02-28T03:44:21;4.47;;;0.85;;
37241;SDS011;23135;51.078;12.108;2023-02-28T03:46:56;3.33;;;0.68;;
37241;SDS011;23135;51.078;12.108;2023-02-28T03:49:27;4.82;;;0.93;;
37241;SDS011;23135;51.078;12.108;2023-02-28T03:51:59;2.95;;;1.02;;
37241;SDS011;23135;51.078;12.108;2023-02-28T03:54:29;5.25;;;1.13;;
37241;SDS011;23135;51.078;12.108;2023-02-28T03:59:42;3.92;;;0.98;;
37241;SDS011;23135;51.078;12.108;2023-02-28T04:02:11;2.53;;;0.80;;
37241;SDS011;23135;51.078;12.108;2023-02-28T04:04:36;3.13;;;0.93;;
37241;SDS011;23135;51.078;12.108;2023-02-28T04:07:04;2.28;;;0.70;;
37241;SDS011;23135;51.078;12.108;2023-02-28T04:09:31;2.10;;;0.70;;
37241;SDS011;23135;51.078;12.108;2023-02-28T04:11:57;2.33;;;1.17;;
37241;SDS011;23135;51.078;12.108;2023-02-28T04:14:23;2.47;;;1.25;;
37241;SDS011;23135;51.078;12.108;2023-02-28T04:16:49;4.60;;;1.77;;
37241;SDS011;23135;51.078;12.108;2023-02-28T04:19:16;2.38;;;0.93;;
37241;SDS011;23135;51.078;12.108;2023-02-28T04:21:43;3.72;;;1.15;;
37241;SDS011;23135;51.078;12.108;2023-02-28T04:24:11;2.10;;;0.47;;
37241;SDS011;23135;51.078;12.108;2023-02-28T04:26:40;4.22;;;0.93;;
37241;SDS011;23135;51.078;12.108;2023-02-28T04:29:08;2.38;;;1.27;;
37241;SDS011;23135;51.078;12.108;2023-02-28T04:31:35;4.03;;;1.73;;
37241;SDS011;23135;51.078;12.108;2023-02-28T04:34:01;2.38;;;0.82;;
37241;SDS011;23135;51.078;12.108;2023-02-28T04:36:26;3.25;;;0.88;;
37241;SDS011;23135;51.078;12.108;2023-02-28T04:38:52;4.13;;;1.52;;
37241;SDS011;23135;51.078;12.108;2023-02-28T04:41:18;5.72;;;1.52;;
37241;SDS011;23135;51.078;12.108;2023-02-28T04:43:44;3.15;;;0.88;;
37241;SDS011;23135;51.078;12.108;2023-02-28T04:46:10;3.47;;;1.48;;
37241;SDS011;23135;51.078;12.108;2023-02-28T04:48:36;4.30;;;1.85;;
37241;SDS011;23135;51.078;12.108;2023-02-28T04:51:04;4.57;;;1.52;;
37241;SDS011;23135;51.078;12.108;2023-02-28T04:53:32;5.60;;;2.28;;
37241;SDS011;23135;51.078;12.108;2023-02-28T04:55:58;2.20;;;1.23;;
37241;SDS011;23135;51.078;12.108;2023-02-28T04:58:25;3.95;;;1.40;;
37241;SDS011;23135;51.078;12.108;2023-02-28T05:00:51;12.70;;;2.42;;
37241;SDS011;23135;51.078;12.108;2023-02-28T05:03:17;10.70;;;2.50;;
37241;SDS011;23135;51.078;12.108;2023-02-28T05:05:43;3.92;;;2.13;;
37241;SDS011;23135;51.078;12.108;2023-02-28T05:08:08;9.98;;;2.17;;
37241;SDS011;23135;51.078;12.108;2023-02-28T05:10:34;7.65;;;2.22;;
37241;SDS011;23135;51.078;12.108;2023-02-28T05:13:00;5.97;;;2.80;;
37241;SDS011;23135;51.078;12.108;2023-02-28T05:15:26;6.13;;;1.02;;
37241;SDS011;23135;51.078;12.108;2023-02-28T05:17:51;6.40;;;2.08;;
37241;SDS011;23135;51.078;12.108;2023-02-28T05:20:17;5.45;;;2.13;;
37241;SDS011;23135;51.078;12.108;2023-02-28T05:22:43;9.13;;;2.63;;
37241;SDS011;23135;51.078;12.108;2023-02-28T05:25:12;2.65;;;1.45;;
37241;SDS011;23135;51.078;12.108;2023-02-28T05:27:41;6.90;;;2.90;;
37241;SDS011;23135;51.078;12.108;2023-02-28T05:30:07;4.90;;;1.67;;
37241;SDS011;23135;51.078;12.108;2023-02-28T05:32:35;4.20;;;1.65;;
37241;SDS011;23135;51.078;12.108;2023-02-28T05:35:01;5.40;;;2.40;;
37241;SDS011;23135;51.078;12.108;2023-02-28T05:37:27;4.03;;;1.45;;
37241;SDS011;23135;51.078;12.108;2023-02-28T05:39:53;5.72;;;2.33;;
37241;SDS011;23135;51.078;12.108;2023-02-28T05:42:18;5.20;;;1.48;;
37241;SDS011;23135;51.078;12.108;2023-02-28T05:44:44;7.10;;;1.73;;
37241;SDS011;23135;51.078;12.108;2023-02-28T05:47:10;5.13;;;1.40;;
37241;SDS011;23135;51.078;12.108;2023-02-28T05:49:37;5.40;;;2.17;;
37241;SDS011;23135;51.078;12.108;2023-02-28T05:52:03;8.02;;;2.58;;
37241;SDS011;23135;51.078;12.108;2023-02-28T05:54:28;9.90;;;1.90;;
37241;SDS011;23135;51.078;12.108;2023-02-28T05:56:54;12.82;;;3.10;;
37241;SDS011;23135;51.078;12.108;2023-02-28T05:59:20;6.35;;;2.13;;
37241;SDS011;23135;51.078;12.108;2023-02-28T06:01:45;9.63;;;1.95;;
37241;SDS011;23135;51.078;12.108;2023-02-28T06:04:15;4.05;;;1.67;;
37241;SDS011;23135;51.078;12.108;2023-02-28T06:06:44;7.90;;;2.10;;
37241;SDS011;23135;51.078;12.108;2023-02-28T06:09:10;7.03;;;1.52;;
37241;SDS011;23135;51.078;12.108;2023-02-28T06:11:36;8.80;;;2.38;;
37241;SDS011;23135;51.078;12.108;2023-02-28T06:14:03;7.00;;;1.83;;
37241;SDS011;23135;51.078;12.108;2023-02-28T06:16:30;9.93;;;2.50;;
37241;SDS011;23135;51.078;12.108;2023-02-28T06:18:57;6.88;;;1.50;;
37241;SDS011;23135;51.078;12.108;2023-02-28T06:21:23;10.80;;;2.42;;
37241;SDS011;23135;51.078;12.108;2023-02-28T06:23:50;5.60;;;1.67;;
37241;SDS011;23135;51.078;12.108;2023-02-28T06:26:15;7.43;;;2.53;;
37241;SDS011;23135;51.078;12.108;2023-02-28T06:28:41;4.82;;;2.00;;
37241;SDS011;23135;51.078;12.108;2023-02-28T06:31:07;7.40;;;1.92;;
37241;SDS011;23135;51.078;12.108;2023-02-28T06:33:35;4.00;;;1.92;;
37241;SDS011;23135;51.078;12.108;2023-02-28T06:36:01;7.20;;;2.15;;
37241;SDS011;23135;51.078;12.108;2023-02-28T06:38:27;7.15;;;2.10;;
37241;SDS011;23135;51.078;12.108;2023-02-28T06:40:53;7.97;;;2.40;;
37241;SDS011;23135;51.078;12.108;2023-02-28T06:43:20;6.90;;;2.28;;
37241;SDS011;23135;51.078;12.108;2023-02-28T06:45:46;6.13;;;1.80;;
37241;SDS011;23135;51.078;12.108;2023-02-28T06:48:12;5.13;;;1.45;;
37241;SDS011;23135;51.078;12.108;2023-02-28T06:50:37;11.27;;;2.45;;
37241;SDS011;23135;51.078;12.108;2023-02-28T06:53:03;9.52;;;2.30;;
37241;SDS011;23135;51.078;12.108;2023-02-28T06:55:28;7.72;;;2.58;;
37241;SDS011;23135;51.078;12.108;2023-02-28T06:57:54;7.43;;;1.95;;
37241;SDS011;23135;51.078;12.108;2023-02-28T07:00:20;6.63;;;2.25;;
37241;SDS011;23135;51.078;12.108;2023-02-28T07:02:46;5.53;;;2.33;;
37241;SDS011;23135;51.078;12.108;2023-02-28T07:05:12;6.65;;;2.15;;
37241;SDS011;23135;51.078;12.108;2023-02-28T07:07:38;9.25;;;2.78;;
37241;SDS011;23135;51.078;12.108;2023-02-28T07:10:08;6.10;;;2.55;;
37241;SDS011;23135;51.078;12.108;2023-02-28T07:12:39;7.35;;;3.08;;
37241;SDS011;23135;51.078;12.108;2023-02-28T07:15:05;7.43;;;4.00;;
37241;SDS011;23135;51.078;12.108;2023-02-28T07:17:31;5.10;;;2.30;;
37241;SDS011;23135;51.078;12.108;2023-02-28T07:19:56;7.60;;;2.75;;
37241;SDS011;23135;51.078;12.108;2023-02-28T07:22:22;9.05;;;2.40;;
37241;SDS011;23135;51.078;12.108;2023-02-28T07:24:48;7.85;;;2.80;;
37241;SDS011;23135;51.078;12.108;2023-02-28T07:27:13;9.88;;;3.05;;
37241;SDS011;23135;51.078;12.108;2023-02-28T07:29:48;7.22;;;3.53;;
37241;SDS011;23135;51.078;12.108;2023-02-28T07:32:14;8.38;;;2.75;;
37241;SDS011;23135;51.078;12.108;2023-02-28T07:34:40;9.57;;;2.53;;
37241;SDS011;23135;51.078;12.108;2023-02-28T07:37:05;7.25;;;2.42;;
37241;SDS011;23135;51.078;12.108;2023-02-28T07:39:31;6.18;;;2.70;;
37241;SDS011;23135;51.078;12.108;2023-02-28T07:41:57;7.85;;;3.25;;
37241;SDS011;23135;51.078;12.108;2023-02-28T07:44:24;10.50;;;3.75;;
37241;SDS011;23135;51.078;12.108;2023-02-28T07:46:50;9.32;;;3.97;;
37241;SDS011;23135;51.078;12.108;2023-02-28T07:49:16;10.20;;;4.10;;
37241;SDS011;23135;51.078;12.108;2023-02-28T07:51:41;5.28;;;2.30;;
37241;SDS011;23135;51.078;12.108;2023-02-28T07:54:07;6.53;;;2.67;;
37241;SDS011;23135;51.078;12.108;2023-02-28T07:56:32;7.25;;;3.20;;
37241;SDS011;23135;51.078;12.108;2023-02-28T07:58:58;6.00;;;3.00;;
37241;SDS011;23135;51.078;12.108;2023-02-28T08:01:24;15.65;;;3.17;;
37241;SDS011;23135;51.078;12.108;2023-02-28T08:03:49;4.88;;;2.88;;
37241;SDS011;23135;51.078;12.108;2023-02-28T08:06:19;8.38;;;2.80;;
37241;SDS011;23135;51.078;12.108;2023-02-28T08:08:46;8.63;;;2.92;;
37241;SDS011;23135;51.078;12.108;2023-02-28T08:11:12;6.45;;;2.70;;
37241;SDS011;23135;51.078;12.108;2023-02-28T08:13:38;6.43;;;2.22;;
37241;SDS011;23135;51.078;12.108;2023-02-28T08:16:04;4.75;;;2.50;;
37241;SDS011;23135;51.078;12.108;2023-02-28T08:18:30;5.88;;;2.25;;
37241;SDS011;23135;51.078;12.108;2023-02-28T08:20:57;6.85;;;3.28;;
37241;SDS011;23135;51.078;12.108;2023-02-28T08:23:22;9.10;;;2.15;;
37241;SDS011;23135;51.078;12.108;2023-02-28T08:25:54;5.65;;;2.30;;
37241;SDS011;23135;51.078;12.108;2023-02-28T08:28:20;7.78;;;2.03;;
37241;SDS011;23135;51.078;12.108;2023-02-28T08:30:46;4.68;;;2.15;;
37241;SDS011;23135;51.078;12.108;2023-02-28T08:33:12;4.63;;;1.83;;
37241;SDS011;23135;51.078;12.108;2023-02-28T08:35:37;5.97;;;1.90;;
37241;SDS011;23135;51.078;12.108;2023-02-28T08:38:03;3.65;;;1.60;;
37241;SDS011;23135;51.078;12.108;2023-02-28T08:40:28;8.02;;;2.22;;
37241;SDS011;23135;51.078;12.108;2023-02-28T08:42:54;4.68;;;2.05;;
37241;SDS011;23135;51.078;12.108;2023-02-28T08:45:20;4.65;;;1.73;;
37241;SDS011;23135;51.078;12.108;2023-02-28T08:47:45;5.85;;;2.60;;
37241;SDS011;23135;51.078;12.108;2023-02-28T08:50:11;7.55;;;2.85;;
37241;SDS011;23135;51.078;12.108;2023-02-28T08:52:40;5.57;;;2.08;;
37241;SDS011;23135;51.078;12.108;2023-02-28T08:55:08;3.80;;;1.58;;
37241;SDS011;23135;51.078;12.108;2023-02-28T08:57:34;8.98;;;1.63;;
37241;SDS011;23135;51.078;12.108;2023-02-28T09:00:00;4.35;;;1.90;;
37241;SDS011;23135;51.078;12.108;2023-02-28T09:02:29;3.42;;;1.80;;
37241;SDS011;23135;51.078;12.108;2023-02-28T09:04:56;3.88;;;1.75;;
37241;SDS011;23135;51.078;12.108;2023-02-28T09:07:24;4.25;;;2.03;;
37241;SDS011;23135;51.078;12.108;2023-02-28T09:09:50;4.60;;;1.50;;
37241;SDS011;23135;51.078;12.108;2023-02-28T09:12:19;4.20;;;1.95;;
37241;SDS011;23135;51.078;12.108;2023-02-28T09:14:48;12.35;;;1.98;;
37241;SDS011;23135;51.078;12.108;2023-02-28T09:17:14;6.53;;;2.03;;
37241;SDS011;23135;51.078;12.108;2023-02-28T09:19:40;3.45;;;1.50;;
37241;SDS011;23135;51.078;12.108;2023-02-28T09:22:05;8.50;;;1.70;;
37241;SDS011;23135;51.078;12.108;2023-02-28T09:24:31;6.45;;;2.42;;
37241;SDS011;23135;51.078;12.108;2023-02-28T09:26:56;5.18;;;1.63;;
37241;SDS011;23135;51.078;12.108;2023-02-28T09:29:22;4.82;;;1.02;;
37241;SDS011;23135;51.078;12.108;2023-02-28T09:31:48;4.20;;;1.77;;
37241;SDS011;23135;51.078;12.108;2023-02-28T09:34:14;7.75;;;2.55;;
37241;SDS011;23135;51.078;12.108;2023-02-28T09:36:40;9.02;;;2.53;;
37241;SDS011;23135;51.078;12.108;2023-02-28T09:39:06;11.90;;;2.83;;
37241;SDS011;23135;51.078;12.108;2023-02-28T09:41:36;8.45;;;2.42;;
37241;SDS011;23135;51.078;12.108;2023-02-28T09:44:05;7.28;;;2.17;;
37241;SDS011;23135;51.078;12.108;2023-02-28T09:46:38;4.70;;;1.85;;
37241;SDS011;23135;51.078;12.108;2023-02-28T09:49:11;7.15;;;2.63;;
37241;SDS011;23135;51.078;12.108;2023-02-28T09:51:55;12.27;;;1.58;;
37241;SDS011;23135;51.078;12.108;2023-02-28T09:54:30;4.20;;;1.48;;
37241;SDS011;23135;51.078;12.108;2023-02-28T09:59:38;2.22;;;0.75;;
37241;SDS011;23135;51.078;12.108;2023-02-28T10:08:23;5.82;;;1.13;;
37241;SDS011;23135;51.078;12.108;2023-02-28T10:11:03;4.97;;;1.33;;
37241;SDS011;23135;51.078;12.108;2023-02-28T10:13:34;3.83;;;1.27;;
37241;SDS011;23135;51.078;12.108;2023-02-28T10:16:11;12.50;;;1.33;;
37241;SDS011;23135;51.078;12.108;2023-02-28T10:21:30;6.75;;;0.90;;
37241;SDS011;23135;51.078;12.108;2023-02-28T10:27:06;4.03;;;1.93;;
37241;SDS011;23135;51.078;12.108;2023-02-28T10:29:40;8.43;;;2.75;;
37241;SDS011;23135;51.078;12.108;2023-02-28T10:32:08;5.63;;;3.38;;
37241;SDS011;23135;51.078;12.108;2023-02-28T10:34:38;6.65;;;3.13;;
37241;SDS011;23135;51.078;12.108;2023-02-28T10:37:04;4.28;;;2.50;;
37241;SDS011;23135;51.078;12.108;2023-02-28T10:39:45;4.65;;;2.40;;
37241;SDS011;23135;51.078;12.108;2023-02-28T10:42:24;11.63;;;2.65;;
37241;SDS011;23135;51.078;12.108;2023-02-28T10:45:06;4.80;;;2.63;;
37241;SDS011;23135;51.078;12.108;2023-02-28T10:47:39;6.32;;;3.97;;
37241;SDS011;23135;51.078;12.108;2023-02-28T10:55:41;6.30;;;3.03;;
37241;SDS011;23135;51.078;12.108;2023-02-28T10:58:23;6.32;;;3.45;;
37241;SDS011;23135;51.078;12.108;2023-02-28T11:00:49;6.80;;;3.42;;
37241;SDS011;23135;51.078;12.108;2023-02-28T11:03:30;6.93;;;3.38;;
37241;SDS011;23135;51.078;12.108;2023-02-28T11:05:58;4.30;;;2.60;;
37241;SDS011;23135;51.078;12.108;2023-02-28T11:08:29;7.13;;;3.42;;
37241;SDS011;23135;51.078;12.108;2023-02-28T11:10:56;5.60;;;2.10;;
37241;SDS011;23135;51.078;12.108;2023-02-28T11:13:32;6.45;;;2.60;;
37241;SDS011;23135;51.078;12.108;2023-02-28T11:16:00;4.60;;;2.92;;
37241;SDS011;23135;51.078;12.108;2023-02-28T11:21:04;6.30;;;3.08;;
37241;SDS011;23135;51.078;12.108;2023-02-28T11:23:30;7.82;;;3.40;;
37241;SDS011;23135;51.078;12.108;2023-02-28T11:25:59;7.72;;;3.30;;
37241;SDS011;23135;51.078;12.108;2023-02-28T11:28:34;7.07;;;3.08;;
37241;SDS011;23135;51.078;12.108;2023-02-28T11:36:20;6.80;;;3.72;;
37241;SDS011;23135;51.078;12.108;2023-02-28T11:38:55;4.00;;;2.88;;
37241;SDS011;23135;51.078;12.108;2023-02-28T11:50:43;14.50;;;5.05;;
37241;SDS011;23135;51.078;12.108;2023-02-28T11:53:20;4.28;;;3.08;;
37241;SDS011;23135;51.078;12.108;2023-02-28T11:56:03;8.25;;;2.92;;
37241;SDS011;23135;51.078;12.108;2023-02-28T12:03:58;7.93;;;3.35;;
37241;SDS011;23135;51.078;12.108;2023-02-28T12:09:56;11.98;;;4.07;;
37241;SDS011;23135;51.078;12.108;2023-02-28T12:12:40;5.85;;;3.70;;
37241;SDS011;23135;51.078;12.108;2023-02-28T12:15:16;8.15;;;3.83;;
37241;SDS011;23135;51.078;12.108;2023-02-28T12:26:38;5.97;;;3.28;;
37241;SDS011;23135;51.078;12.108;2023-02-28T12:29:12;4.72;;;2.60;;
37241;SDS011;23135;51.078;12.108;2023-02-28T12:34:51;11.52;;;4.22;;
37241;SDS011;23135;51.078;12.108;2023-02-28T12:37:21;7.55;;;3.40;;
37241;SDS011;23135;51.078;12.108;2023-02-28T12:39:55;8.52;;;4.53;;
37241;SDS011;23135;51.078;12.108;2023-02-28T12:42:31;8.73;;;3.92;;
37241;SDS011;23135;51.078;12.108;2023-02-28T12:45:02;5.82;;;3.55;;
37241;SDS011;23135;51.078;12.108;2023-02-28T12:47:59;7.40;;;3.80;;
37241;SDS011;23135;51.078;12.108;2023-02-28T12:50:26;9.13;;;4.40;;
37241;SDS011;23135;51.078;12.108;2023-02-28T12:52:56;7.45;;;3.92;;
37241;SDS011;23135;51.078;12.108;2023-02-28T12:58:01;4.15;;;3.10;;
37241;SDS011;23135;51.078;12.108;2023-02-28T13:00:38;5.75;;;2.78;;
37241;SDS011;23135;51.078;12.108;2023-02-28T13:06:27;6.90;;;2.87;;
37241;SDS011;23135;51.078;12.108;2023-02-28T13:09:16;12.50;;;3.70;;
37241;SDS011;23135;51.078;12.108;2023-02-28T13:11:46;6.70;;;3.60;;
37241;SDS011;23135;51.078;12.108;2023-02-28T13:14:37;6.03;;;4.05;;
37241;SDS011;23135;51.078;12.108;2023-02-28T13:17:09;11.30;;;3.42;;
37241;SDS011;23135;51.078;12.108;2023-02-28T13:19:45;8.32;;;4.20;;
37241;SDS011;23135;51.078;12.108;2023-02-28T13:22:16;7.00;;;3.65;;
37241;SDS011;23135;51.078;12.108;2023-02-28T13:27:19;7.60;;;5.15;;
37241;SDS011;23135;51.078;12.108;2023-02-28T13:29:56;9.45;;;4.63;;
37241;SDS011;23135;51.078;12.108;2023-02-28T13:39:56;7.32;;;3.83;;
37241;SDS011;23135;51.078;12.108;2023-02-28T13:47:31;7.35;;;4.40;;
37241;SDS011;23135;51.078;12.108;2023-02-28T14:06:54;7.07;;;4.10;;
37241;SDS011;23135;51.078;12.108;2023-02-28T14:09:25;6.07;;;4.53;;
37241;SDS011;23135;51.078;12.108;2023-02-28T14:17:51;13.52;;;4.70;;
37241;SDS011;23135;51.078;12.108;2023-02-28T14:20:18;10.50;;;5.72;;
37241;SDS011;23135;51.078;12.108;2023-02-28T14:25:30;11.30;;;5.00;;
37241;SDS011;23135;51.078;12.108;2023-02-28T14:35:58;13.32;;;5.80;;
37241;SDS011;23135;51.078;12.108;2023-02-28T14:38:31;8.57;;;5.55;;
37241;SDS011;23135;51.078;12.108;2023-02-28T14:41:05;14.55;;;6.70;;
37241;SDS011;23135;51.078;12.108;2023-02-28T14:43:49;12.00;;;5.90;;
37241;SDS011;23135;51.078;12.108;2023-02-28T14:46:17;13.02;;;5.93;;
37241;SDS011;23135;51.078;12.108;2023-02-28T14:48:47;11.95;;;5.82;;
37241;SDS011;23135;51.078;12.108;2023-02-28T14:51:17;8.90;;;5.60;;
37241;SDS011;23135;51.078;12.108;2023-02-28T14:53:46;15.63;;;6.95;;
37241;SDS011;23135;51.078;12.108;2023-02-28T14:56:21;14.57;;;6.95;;
37241;SDS011;23135;51.078;12.108;2023-02-28T14:58:54;10.63;;;5.93;;
37241;SDS011;23135;51.078;12.108;2023-02-28T15:01:22;11.50;;;6.47;;
37241;SDS011;23135;51.078;12.108;2023-02-28T15:03:56;11.25;;;6.13;;
37241;SDS011;23135;51.078;12.108;2023-02-28T15:06:24;10.10;;;5.85;;
37241;SDS011;23135;51.078;12.108;2023-02-28T15:09:06;9.55;;;5.15;;
37241;SDS011;23135;51.078;12.108;2023-02-28T15:11:39;10.95;;;5.75;;
37241;SDS011;23135;51.078;12.108;2023-02-28T15:14:05;10.45;;;6.40;;
37241;SDS011;23135;51.078;12.108;2023-02-28T15:16:32;10.38;;;6.05;;
37241;SDS011;23135;51.078;12.108;2023-02-28T15:19:11;10.32;;;6.28;;
37241;SDS011;23135;51.078;12.108;2023-02-28T15:21:43;12.60;;;6.07;;
37241;SDS011;23135;51.078;12.108;2023-02-28T15:24:35;9.15;;;5.88;;
37241;SDS011;23135;51.078;12.108;2023-02-28T15:27:00;10.88;;;5.90;;
37241;SDS011;23135;51.078;12.108;2023-02-28T15:29:29;10.90;;;6.25;;
37241;SDS011;23135;51.078;12.108;2023-02-28T15:32:03;9.93;;;6.53;;
37241;SDS011;23135;51.078;12.108;2023-02-28T15:34:37;16.73;;;7.30;;
37241;SDS011;23135;51.078;12.108;2023-02-28T15:37:24;16.13;;;6.63;;
37241;SDS011;23135;51.078;12.108;2023-02-28T15:39:56;11.02;;;6.10;;
37241;SDS011;23135;51.078;12.108;2023-02-28T15:42:27;9.90;;;5.93;;
37241;SDS011;23135;51.078;12.108;2023-02-28T15:44:53;11.48;;;6.30;;
37241;SDS011;23135;51.078;12.108;2023-02-28T15:47:22;13.25;;;6.18;;
37241;SDS011;23135;51.078;12.108;2023-02-28T15:50:12;11.88;;;7.05;;
37241;SDS011;23135;51.078;12.108;2023-02-28T15:52:39;15.48;;;7.38;;
37241;SDS011;23135;51.078;12.108;2023-02-28T15:57:47;11.88;;;7.15;;
37241;SDS011;23135;51.078;12.108;2023-02-28T16:00:18;13.65;;;7.80;;
37241;SDS011;23135;51.078;12.108;2023-02-28T16:02:45;18.52;;;9.25;;
37241;SDS011;23135;51.078;12.108;2023-02-28T16:07:40;15.60;;;8.65;;
37241;SDS011;23135;51.078;12.108;2023-02-28T16:10:08;14.00;;;7.07;;
37241;SDS011;23135;51.078;12.108;2023-02-28T16:12:37;11.68;;;6.90;;
37241;SDS011;23135;51.078;12.108;2023-02-28T16:15:08;14.00;;;7.78;;
37241;SDS011;23135;51.078;12.108;2023-02-28T16:17:45;13.38;;;7.82;;
37241;SDS011;23135;51.078;12.108;2023-02-28T16:22:46;16.70;;;7.70;;
37241;SDS011;23135;51.078;12.108;2023-02-28T16:25:15;19.67;;;8.13;;
37241;SDS011;23135;51.078;12.108;2023-02-28T16:27:42;20.15;;;8.07;;
37241;SDS011;23135;51.078;12.108;2023-02-28T16:30:15;15.50;;;7.53;;
37241;SDS011;23135;51.078;12.108;2023-02-28T16:32:43;20.27;;;9.15;;
37241;SDS011;23135;51.078;12.108;2023-02-28T16:35:09;15.15;;;8.20;;
37241;SDS011;23135;51.078;12.108;2023-02-28T16:37:36;15.65;;;8.07;;
37241;SDS011;23135;51.078;12.108;2023-02-28T16:40:02;17.90;;;7.93;;
37241;SDS011;23135;51.078;12.108;2023-02-28T16:42:28;11.57;;;6.97;;
37241;SDS011;23135;51.078;12.108;2023-02-28T16:44:56;15.93;;;8.55;;
37241;SDS011;23135;51.078;12.108;2023-02-28T16:47:22;15.85;;;8.45;;
37241;SDS011;23135;51.078;12.108;2023-02-28T16:49:48;16.25;;;8.10;;
37241;SDS011;23135;51.078;12.108;2023-02-28T16:52:14;25.00;;;9.60;;
37241;SDS011;23135;51.078;12.108;2023-02-28T16:54:40;23.85;;;9.88;;
37241;SDS011;23135;51.078;12.108;2023-02-28T16:59:41;14.10;;;8.75;;
37241;SDS011;23135;51.078;12.108;2023-02-28T17:02:11;19.17;;;8.55;;
37241;SDS011;23135;51.078;12.108;2023-02-28T17:04:39;15.63;;;8.95;;
37241;SDS011;23135;51.078;12.108;2023-02-28T17:07:04;24.55;;;9.38;;
37241;SDS011;23135;51.078;12.108;2023-02-28T17:09:30;18.90;;;9.68;;